sensor_id;sensor_type;location;lat;lon;timestamp;P1;durP1;ratioP1;P2;durP2;ratioP2
10705;SDS011;5404;42.656;23.336;2023-04-16T00:00:41;12.18;;;3.30;;
10705;SDS011;5404;42.656;23.336;2023-04-16T00:03:06;6.97;;;2.85;;
10705;SDS011;5404;42.656;23.336;2023-04-16T00:05:32;9.90;;;3.33;;
10705;SDS011;5404;42.656;23.336;2023-04-16T00:07:57;12.40;;;4.20;;
10705;SDS011;5404;42.656;23.336;2023-04-16T00:10:22;8.57;;;3.30;;
10705;SDS011;5404;42.656;23.336;2023-04-16T00:12:48;10.38;;;3.83;;
10705;SDS011;5404;42.656;23.336;2023-04-16T00:15:13;6.03;;;3.70;;
10705;SDS011;5404;42.656;23.336;2023-04-16T00:17:40;8.55;;;3.70;;
10705;SDS011;5404;42.656;23.336;2023-04-16T00:20:05;8.20;;;3.80;;
10705;SDS011;5404;42.656;23.336;2023-04-16T00:22:32;7.72;;;3.67;;
10705;SDS011;5404;42.656;23.336;2023-04-16T00:24:58;11.23;;;3.30;;
10705;SDS011;5404;42.656;23.336;2023-04-16T00:27:24;10.02;;;3.95;;
10705;SDS011;5404;42.656;23.336;2023-04-16T00:29:49;8.73;;;3.83;;
10705;SDS011;5404;42.656;23.336;2023-04-16T00:32:14;7.28;;;4.07;;
10705;SDS011;5404;42.656;23.336;2023-04-16T00:34:40;11.25;;;4.45;;
10705;SDS011;5404;42.656;23.336;2023-04-16T00:37:06;7.47;;;3.90;;
10705;SDS011;5404;42.656;23.336;2023-04-16T00:39:31;10.38;;;3.67;;
10705;SDS011;5404;42.656;23.336;2023-04-16T00:41:56;8.43;;;3.20;;
10705;SDS011;5404;42.656;23.336;2023-04-16T00:44:22;7.68;;;3.92;;
10705;SDS011;5404;42.656;23.336;2023-04-16T00:46:49;9.75;;;4.50;;
10705;SDS011;5404;42.656;23.336;2023-04-16T00:49:15;12.50;;;3.78;;
10705;SDS011;5404;42.656;23.336;2023-04-16T00:51:40;8.30;;;4.28;;
10705;SDS011;5404;42.656;23.336;2023-04-16T00:54:06;10.68;;;4.13;;
10705;SDS011;5404;42.656;23.336;2023-04-16T00:56:31;10.88;;;3.97;;
10705;SDS011;5404;42.656;23.336;2023-04-16T00:58:57;9.77;;;4.78;;
10705;SDS011;5404;42.656;23.336;2023-04-16T01:01:23;8.57;;;3.95;;
10705;SDS011;5404;42.656;23.336;2023-04-16T01:03:49;12.50;;;4.55;;
10705;SDS011;5404;42.656;23.336;2023-04-16T01:06:15;10.18;;;3.70;;
10705;SDS011;5404;42.656;23.336;2023-04-16T01:08:42;12.85;;;3.83;;
10705;SDS011;5404;42.656;23.336;2023-04-16T01:11:12;8.60;;;4.15;;
10705;SDS011;5404;42.656;23.336;2023-04-16T01:13:39;13.73;;;3.75;;
10705;SDS011;5404;42.656;23.336;2023-04-16T01:16:08;7.40;;;3.60;;
10705;SDS011;5404;42.656;23.336;2023-04-16T01:18:36;9.90;;;4.22;;
10705;SDS011;5404;42.656;23.336;2023-04-16T01:21:03;6.20;;;3.20;;
10705;SDS011;5404;42.656;23.336;2023-04-16T01:23:29;9.73;;;3.72;;
10705;SDS011;5404;42.656;23.336;2023-04-16T01:25:55;6.80;;;3.38;;
10705;SDS011;5404;42.656;23.336;2023-04-16T01:28:20;9.05;;;4.22;;
10705;SDS011;5404;42.656;23.336;2023-04-16T01:30:46;7.28;;;4.35;;
10705;SDS011;5404;42.656;23.336;2023-04-16T01:33:12;10.55;;;5.70;;
10705;SDS011;5404;42.656;23.336;2023-04-16T01:35:38;16.58;;;3.97;;
10705;SDS011;5404;42.656;23.336;2023-04-16T01:38:05;9.38;;;4.30;;
10705;SDS011;5404;42.656;23.336;2023-04-16T01:40:32;15.60;;;5.45;;
10705;SDS011;5404;42.656;23.336;2023-04-16T01:43:01;16.20;;;4.75;;
10705;SDS011;5404;42.656;23.336;2023-04-16T01:45:27;9.93;;;4.28;;
10705;SDS011;5404;42.656;23.336;2023-04-16T01:47:52;12.98;;;4.30;;
10705;SDS011;5404;42.656;23.336;2023-04-16T01:50:18;15.25;;;4.53;;
10705;SDS011;5404;42.656;23.336;2023-04-16T01:52:45;7.85;;;4.30;;
10705;SDS011;5404;42.656;23.336;2023-04-16T01:55:11;10.00;;;4.10;;
10705;SDS011;5404;42.656;23.336;2023-04-16T01:57:36;7.45;;;4.40;;
10705;SDS011;5404;42.656;23.336;2023-04-16T02:00:02;10.73;;;4.78;;
10705;SDS011;5404;42.656;23.336;2023-04-16T02:02:28;11.18;;;4.75;;
10705;SDS011;5404;42.656;23.336;2023-04-16T02:04:54;12.15;;;4.25;;
10705;SDS011;5404;42.656;23.336;2023-04-16T02:07:23;9.95;;;4.20;;
10705;SDS011;5404;42.656;23.336;2023-04-16T02:09:49;9.52;;;4.05;;
10705;SDS011;5404;42.656;23.336;2023-04-16T02:12:15;9.75;;;4.38;;
10705;SDS011;5404;42.656;23.336;2023-04-16T02:14:41;10.90;;;4.40;;
10705;SDS011;5404;42.656;23.336;2023-04-16T02:17:06;10.75;;;4.00;;
10705;SDS011;5404;42.656;23.336;2023-04-16T02:19:32;9.30;;;3.97;;
10705;SDS011;5404;42.656;23.336;2023-04-16T02:21:57;12.80;;;4.28;;
10705;SDS011;5404;42.656;23.336;2023-04-16T02:24:22;8.00;;;3.65;;
10705;SDS011;5404;42.656;23.336;2023-04-16T02:26:48;15.32;;;4.63;;
10705;SDS011;5404;42.656;23.336;2023-04-16T02:29:13;10.98;;;4.75;;
10705;SDS011;5404;42.656;23.336;2023-04-16T02:31:40;6.45;;;4.07;;
10705;SDS011;5404;42.656;23.336;2023-04-16T02:34:06;7.15;;;3.03;;
10705;SDS011;5404;42.656;23.336;2023-04-16T02:36:32;9.50;;;2.90;;
10705;SDS011;5404;42.656;23.336;2023-04-16T02:38:57;8.95;;;3.88;;
10705;SDS011;5404;42.656;23.336;2023-04-16T02:41:23;8.48;;;3.08;;
10705;SDS011;5404;42.656;23.336;2023-04-16T02:43:49;5.82;;;2.80;;
10705;SDS011;5404;42.656;23.336;2023-04-16T02:46:14;5.70;;;2.33;;
10705;SDS011;5404;42.656;23.336;2023-04-16T02:48:40;7.53;;;2.60;;
10705;SDS011;5404;42.656;23.336;2023-04-16T02:51:05;7.43;;;2.75;;
10705;SDS011;5404;42.656;23.336;2023-04-16T02:53:31;6.68;;;3.03;;
10705;SDS011;5404;42.656;23.336;2023-04-16T02:55:56;10.82;;;3.08;;
10705;SDS011;5404;42.656;23.336;2023-04-16T02:58:22;6.50;;;3.28;;
10705;SDS011;5404;42.656;23.336;2023-04-16T03:00:49;14.55;;;4.78;;
10705;SDS011;5404;42.656;23.336;2023-04-16T03:03:15;10.63;;;4.25;;
10705;SDS011;5404;42.656;23.336;2023-04-16T03:05:41;12.35;;;4.45;;
10705;SDS011;5404;42.656;23.336;2023-04-16T03:08:07;9.32;;;4.20;;
10705;SDS011;5404;42.656;23.336;2023-04-16T03:10:33;9.65;;;3.30;;
10705;SDS011;5404;42.656;23.336;2023-04-16T03:12:59;9.95;;;3.92;;
10705;SDS011;5404;42.656;23.336;2023-04-16T03:15:25;9.35;;;3.50;;
10705;SDS011;5404;42.656;23.336;2023-04-16T03:17:51;6.43;;;2.92;;
10705;SDS011;5404;42.656;23.336;2023-04-16T03:20:17;7.25;;;2.78;;
10705;SDS011;5404;42.656;23.336;2023-04-16T03:22:43;6.85;;;2.75;;
10705;SDS011;5404;42.656;23.336;2023-04-16T03:25:08;8.68;;;3.03;;
10705;SDS011;5404;42.656;23.336;2023-04-16T03:27:34;9.05;;;2.65;;
10705;SDS011;5404;42.656;23.336;2023-04-16T03:30:00;7.13;;;3.03;;
10705;SDS011;5404;42.656;23.336;2023-04-16T03:32:26;5.70;;;3.05;;
10705;SDS011;5404;42.656;23.336;2023-04-16T03:34:51;10.65;;;3.65;;
10705;SDS011;5404;42.656;23.336;2023-04-16T03:37:17;5.38;;;2.78;;
10705;SDS011;5404;42.656;23.336;2023-04-16T03:39:43;8.25;;;3.05;;
10705;SDS011;5404;42.656;23.336;2023-04-16T03:42:08;5.18;;;3.08;;
10705;SDS011;5404;42.656;23.336;2023-04-16T03:44:34;8.00;;;2.75;;
10705;SDS011;5404;42.656;23.336;2023-04-16T03:46:59;6.32;;;3.05;;
10705;SDS011;5404;42.656;23.336;2023-04-16T03:49:24;4.07;;;2.70;;
10705;SDS011;5404;42.656;23.336;2023-04-16T03:51:50;12.95;;;3.95;;
10705;SDS011;5404;42.656;23.336;2023-04-16T03:54:17;12.95;;;6.07;;
10705;SDS011;5404;42.656;23.336;2023-04-16T03:56:42;11.18;;;4.38;;
10705;SDS011;5404;42.656;23.336;2023-04-16T03:59:08;10.00;;;3.67;;
10705;SDS011;5404;42.656;23.336;2023-04-16T04:01:34;6.57;;;3.42;;
10705;SDS011;5404;42.656;23.336;2023-04-16T04:03:59;10.48;;;3.13;;
10705;SDS011;5404;42.656;23.336;2023-04-16T04:06:25;6.75;;;3.50;;
10705;SDS011;5404;42.656;23.336;2023-04-16T04:08:51;10.70;;;4.25;;
10705;SDS011;5404;42.656;23.336;2023-04-16T04:11:17;7.10;;;3.92;;
10705;SDS011;5404;42.656;23.336;2023-04-16T04:13:42;9.75;;;3.97;;
10705;SDS011;5404;42.656;23.336;2023-04-16T04:16:09;16.35;;;4.13;;
10705;SDS011;5404;42.656;23.336;2023-04-16T04:18:35;10.20;;;3.85;;
10705;SDS011;5404;42.656;23.336;2023-04-16T04:21:07;10.93;;;3.40;;
10705;SDS011;5404;42.656;23.336;2023-04-16T04:23:33;7.93;;;3.65;;
10705;SDS011;5404;42.656;23.336;2023-04-16T04:25:59;10.80;;;3.22;;
10705;SDS011;5404;42.656;23.336;2023-04-16T04:28:27;8.38;;;4.13;;
10705;SDS011;5404;42.656;23.336;2023-04-16T04:33:22;9.13;;;3.58;;
10705;SDS011;5404;42.656;23.336;2023-04-16T04:35:47;5.85;;;3.20;;
10705;SDS011;5404;42.656;23.336;2023-04-16T04:38:13;9.75;;;3.58;;
10705;SDS011;5404;42.656;23.336;2023-04-16T04:40:38;9.63;;;3.80;;
10705;SDS011;5404;42.656;23.336;2023-04-16T04:43:04;7.53;;;3.50;;
10705;SDS011;5404;42.656;23.336;2023-04-16T04:45:29;15.55;;;3.40;;
10705;SDS011;5404;42.656;23.336;2023-04-16T04:47:55;5.57;;;3.33;;
10705;SDS011;5404;42.656;23.336;2023-04-16T04:50:20;8.77;;;3.15;;
10705;SDS011;5404;42.656;23.336;2023-04-16T04:52:46;10.80;;;3.83;;
10705;SDS011;5404;42.656;23.336;2023-04-16T04:55:12;6.85;;;3.78;;
10705;SDS011;5404;42.656;23.336;2023-04-16T04:57:40;8.63;;;3.67;;
10705;SDS011;5404;42.656;23.336;2023-04-16T05:00:06;15.63;;;3.50;;
10705;SDS011;5404;42.656;23.336;2023-04-16T05:02:32;8.55;;;3.58;;
10705;SDS011;5404;42.656;23.336;2023-04-16T05:04:58;6.82;;;3.30;;
10705;SDS011;5404;42.656;23.336;2023-04-16T05:07:23;15.55;;;3.72;;
10705;SDS011;5404;42.656;23.336;2023-04-16T05:09:49;8.30;;;3.55;;
10705;SDS011;5404;42.656;23.336;2023-04-16T05:12:15;8.63;;;3.45;;
10705;SDS011;5404;42.656;23.336;2023-04-16T05:14:41;11.88;;;4.22;;
10705;SDS011;5404;42.656;23.336;2023-04-16T05:17:07;8.82;;;3.90;;
10705;SDS011;5404;42.656;23.336;2023-04-16T05:19:32;7.93;;;3.80;;
10705;SDS011;5404;42.656;23.336;2023-04-16T05:21:58;8.95;;;3.88;;
10705;SDS011;5404;42.656;23.336;2023-04-16T05:24:23;11.80;;;4.03;;
10705;SDS011;5404;42.656;23.336;2023-04-16T05:26:50;11.77;;;4.38;;
10705;SDS011;5404;42.656;23.336;2023-04-16T05:29:17;13.55;;;4.20;;
10705;SDS011;5404;42.656;23.336;2023-04-16T05:31:42;8.85;;;3.75;;
10705;SDS011;5404;42.656;23.336;2023-04-16T05:34:08;9.57;;;3.80;;
10705;SDS011;5404;42.656;23.336;2023-04-16T05:36:33;12.02;;;3.47;;
10705;SDS011;5404;42.656;23.336;2023-04-16T05:38:59;10.85;;;3.45;;
10705;SDS011;5404;42.656;23.336;2023-04-16T05:41:24;10.00;;;3.65;;
10705;SDS011;5404;42.656;23.336;2023-04-16T05:43:50;13.57;;;3.67;;
10705;SDS011;5404;42.656;23.336;2023-04-16T05:46:15;8.30;;;3.20;;
10705;SDS011;5404;42.656;23.336;2023-04-16T05:48:41;8.95;;;3.67;;
10705;SDS011;5404;42.656;23.336;2023-04-16T05:51:06;10.40;;;3.53;;
10705;SDS011;5404;42.656;23.336;2023-04-16T05:53:31;5.78;;;3.20;;
10705;SDS011;5404;42.656;23.336;2023-04-16T05:55:57;13.60;;;4.75;;
10705;SDS011;5404;42.656;23.336;2023-04-16T05:58:22;11.02;;;4.38;;
10705;SDS011;5404;42.656;23.336;2023-04-16T06:00:48;5.20;;;3.45;;
10705;SDS011;5404;42.656;23.336;2023-04-16T06:03:13;12.40;;;3.90;;
10705;SDS011;5404;42.656;23.336;2023-04-16T06:05:39;7.70;;;4.03;;
10705;SDS011;5404;42.656;23.336;2023-04-16T06:08:04;14.35;;;4.40;;
10705;SDS011;5404;42.656;23.336;2023-04-16T06:10:30;9.98;;;3.75;;
10705;SDS011;5404;42.656;23.336;2023-04-16T06:12:55;10.48;;;4.53;;
10705;SDS011;5404;42.656;23.336;2023-04-16T06:15:21;15.20;;;4.65;;
10705;SDS011;5404;42.656;23.336;2023-04-16T06:17:46;13.27;;;5.15;;
10705;SDS011;5404;42.656;23.336;2023-04-16T06:20:11;8.07;;;4.82;;
10705;SDS011;5404;42.656;23.336;2023-04-16T06:22:37;13.80;;;5.32;;
10705;SDS011;5404;42.656;23.336;2023-04-16T06:25:03;13.98;;;5.50;;
10705;SDS011;5404;42.656;23.336;2023-04-16T06:27:29;12.10;;;5.43;;
10705;SDS011;5404;42.656;23.336;2023-04-16T06:29:55;15.20;;;5.05;;
10705;SDS011;5404;42.656;23.336;2023-04-16T06:32:21;9.88;;;4.80;;
10705;SDS011;5404;42.656;23.336;2023-04-16T06:34:46;18.52;;;5.00;;
10705;SDS011;5404;42.656;23.336;2023-04-16T06:37:12;14.88;;;4.93;;
10705;SDS011;5404;42.656;23.336;2023-04-16T06:39:37;12.02;;;4.50;;
10705;SDS011;5404;42.656;23.336;2023-04-16T06:42:03;10.30;;;4.05;;
10705;SDS011;5404;42.656;23.336;2023-04-16T06:44:28;17.13;;;5.38;;
10705;SDS011;5404;42.656;23.336;2023-04-16T06:46:54;10.85;;;4.80;;
10705;SDS011;5404;42.656;23.336;2023-04-16T06:49:20;11.60;;;5.18;;
10705;SDS011;5404;42.656;23.336;2023-04-16T06:51:45;11.82;;;5.28;;
10705;SDS011;5404;42.656;23.336;2023-04-16T06:54:11;12.73;;;4.65;;
10705;SDS011;5404;42.656;23.336;2023-04-16T06:56:36;15.70;;;5.05;;
10705;SDS011;5404;42.656;23.336;2023-04-16T06:59:02;12.52;;;5.30;;
10705;SDS011;5404;42.656;23.336;2023-04-16T07:01:28;14.32;;;5.68;;
10705;SDS011;5404;42.656;23.336;2023-04-16T07:03:55;13.70;;;5.50;;
10705;SDS011;5404;42.656;23.336;2023-04-16T07:06:21;9.15;;;4.82;;
10705;SDS011;5404;42.656;23.336;2023-04-16T07:08:46;9.88;;;5.20;;
10705;SDS011;5404;42.656;23.336;2023-04-16T07:11:11;12.60;;;5.35;;
10705;SDS011;5404;42.656;23.336;2023-04-16T07:13:37;16.17;;;5.45;;
10705;SDS011;5404;42.656;23.336;2023-04-16T07:16:02;22.48;;;6.25;;
10705;SDS011;5404;42.656;23.336;2023-04-16T07:18:28;21.48;;;5.50;;
10705;SDS011;5404;42.656;23.336;2023-04-16T07:20:53;14.15;;;5.75;;
10705;SDS011;5404;42.656;23.336;2023-04-16T07:23:19;16.30;;;5.72;;
10705;SDS011;5404;42.656;23.336;2023-04-16T07:25:44;14.13;;;5.95;;
10705;SDS011;5404;42.656;23.336;2023-04-16T07:28:10;10.77;;;5.05;;
10705;SDS011;5404;42.656;23.336;2023-04-16T07:30:37;11.40;;;5.28;;
10705;SDS011;5404;42.656;23.336;2023-04-16T07:33:02;12.85;;;5.88;;
10705;SDS011;5404;42.656;23.336;2023-04-16T07:35:28;16.52;;;5.50;;
10705;SDS011;5404;42.656;23.336;2023-04-16T07:37:55;15.35;;;5.90;;
10705;SDS011;5404;42.656;23.336;2023-04-16T07:40:20;15.65;;;5.53;;
10705;SDS011;5404;42.656;23.336;2023-04-16T07:42:46;14.90;;;5.32;;
10705;SDS011;5404;42.656;23.336;2023-04-16T07:45:12;13.07;;;5.95;;
10705;SDS011;5404;42.656;23.336;2023-04-16T07:47:37;13.32;;;6.22;;
10705;SDS011;5404;42.656;23.336;2023-04-16T07:50:03;12.35;;;5.45;;
10705;SDS011;5404;42.656;23.336;2023-04-16T07:52:29;11.40;;;4.82;;
10705;SDS011;5404;42.656;23.336;2023-04-16T07:54:54;10.57;;;5.05;;
10705;SDS011;5404;42.656;23.336;2023-04-16T07:57:20;9.30;;;4.30;;
10705;SDS011;5404;42.656;23.336;2023-04-16T07:59:45;10.77;;;4.75;;
10705;SDS011;5404;42.656;23.336;2023-04-16T08:02:11;8.70;;;4.45;;
10705;SDS011;5404;42.656;23.336;2023-04-16T08:04:39;9.60;;;4.95;;
10705;SDS011;5404;42.656;23.336;2023-04-16T08:07:06;8.82;;;4.65;;
10705;SDS011;5404;42.656;23.336;2023-04-16T08:09:31;14.02;;;4.68;;
10705;SDS011;5404;42.656;23.336;2023-04-16T08:11:57;6.82;;;3.58;;
10705;SDS011;5404;42.656;23.336;2023-04-16T08:14:24;15.65;;;4.60;;
10705;SDS011;5404;42.656;23.336;2023-04-16T08:16:49;8.52;;;3.40;;
10705;SDS011;5404;42.656;23.336;2023-04-16T08:19:15;9.43;;;3.40;;
10705;SDS011;5404;42.656;23.336;2023-04-16T08:21:40;7.60;;;3.58;;
10705;SDS011;5404;42.656;23.336;2023-04-16T08:24:06;9.77;;;3.83;;
10705;SDS011;5404;42.656;23.336;2023-04-16T08:26:31;11.95;;;3.92;;
10705;SDS011;5404;42.656;23.336;2023-04-16T08:28:57;18.88;;;3.58;;
10705;SDS011;5404;42.656;23.336;2023-04-16T08:31:22;9.35;;;3.97;;
10705;SDS011;5404;42.656;23.336;2023-04-16T08:33:49;9.40;;;3.38;;
10705;SDS011;5404;42.656;23.336;2023-04-16T08:36:14;6.10;;;3.42;;
10705;SDS011;5404;42.656;23.336;2023-04-16T08:38:40;9.00;;;3.00;;
10705;SDS011;5404;42.656;23.336;2023-04-16T08:41:05;9.75;;;3.08;;
10705;SDS011;5404;42.656;23.336;2023-04-16T08:43:36;6.72;;;3.30;;
10705;SDS011;5404;42.656;23.336;2023-04-16T08:46:04;13.63;;;4.10;;
10705;SDS011;5404;42.656;23.336;2023-04-16T08:48:31;7.30;;;3.28;;
10705;SDS011;5404;42.656;23.336;2023-04-16T08:50:59;8.07;;;4.13;;
10705;SDS011;5404;42.656;23.336;2023-04-16T08:53:34;8.05;;;2.97;;
10705;SDS011;5404;42.656;23.336;2023-04-16T08:56:06;9.43;;;3.50;;
10705;SDS011;5404;42.656;23.336;2023-04-16T08:58:35;6.15;;;3.20;;
10705;SDS011;5404;42.656;23.336;2023-04-16T09:01:02;9.25;;;3.33;;
10705;SDS011;5404;42.656;23.336;2023-04-16T09:03:31;5.70;;;2.60;;
10705;SDS011;5404;42.656;23.336;2023-04-16T09:05:56;12.52;;;3.15;;
10705;SDS011;5404;42.656;23.336;2023-04-16T09:08:23;6.80;;;2.92;;
10705;SDS011;5404;42.656;23.336;2023-04-16T09:10:50;8.80;;;2.80;;
10705;SDS011;5404;42.656;23.336;2023-04-16T09:13:15;9.98;;;2.80;;
10705;SDS011;5404;42.656;23.336;2023-04-16T09:15:44;6.55;;;2.78;;
10705;SDS011;5404;42.656;23.336;2023-04-16T09:18:10;10.20;;;3.30;;
10705;SDS011;5404;42.656;23.336;2023-04-16T09:20:36;7.60;;;2.85;;
10705;SDS011;5404;42.656;23.336;2023-04-16T09:23:02;4.95;;;3.03;;
10705;SDS011;5404;42.656;23.336;2023-04-16T09:25:31;9.38;;;2.97;;
10705;SDS011;5404;42.656;23.336;2023-04-16T09:27:58;7.68;;;2.95;;
10705;SDS011;5404;42.656;23.336;2023-04-16T09:30:24;10.80;;;3.42;;
10705;SDS011;5404;42.656;23.336;2023-04-16T09:32:51;6.65;;;3.15;;
10705;SDS011;5404;42.656;23.336;2023-04-16T09:35:43;4.00;;;2.33;;
10705;SDS011;5404;42.656;23.336;2023-04-16T09:38:16;7.88;;;2.50;;
10705;SDS011;5404;42.656;23.336;2023-04-16T09:40:43;4.60;;;2.63;;
10705;SDS011;5404;42.656;23.336;2023-04-16T09:43:09;5.20;;;2.85;;
10705;SDS011;5404;42.656;23.336;2023-04-16T09:45:49;6.38;;;2.58;;
10705;SDS011;5404;42.656;23.336;2023-04-16T09:48:28;13.23;;;4.30;;
10705;SDS011;5404;42.656;23.336;2023-04-16T09:50:55;5.63;;;2.97;;
10705;SDS011;5404;42.656;23.336;2023-04-16T09:53:24;6.55;;;2.80;;
10705;SDS011;5404;42.656;23.336;2023-04-16T09:55:51;3.33;;;2.17;;
10705;SDS011;5404;42.656;23.336;2023-04-16T10:00:48;7.03;;;2.70;;
10705;SDS011;5404;42.656;23.336;2023-04-16T10:03:14;8.68;;;2.95;;
10705;SDS011;5404;42.656;23.336;2023-04-16T10:05:40;6.82;;;3.00;;
10705;SDS011;5404;42.656;23.336;2023-04-16T10:08:12;7.10;;;3.03;;
10705;SDS011;5404;42.656;23.336;2023-04-16T10:10:38;8.00;;;2.80;;
10705;SDS011;5404;42.656;23.336;2023-04-16T10:13:04;10.13;;;2.92;;
10705;SDS011;5404;42.656;23.336;2023-04-16T10:15:30;5.80;;;2.20;;
10705;SDS011;5404;42.656;23.336;2023-04-16T10:17:56;5.68;;;2.50;;
10705;SDS011;5404;42.656;23.336;2023-04-16T10:20:22;8.68;;;3.22;;
10705;SDS011;5404;42.656;23.336;2023-04-16T10:22:48;5.45;;;2.67;;
10705;SDS011;5404;42.656;23.336;2023-04-16T10:25:15;6.90;;;2.75;;
10705;SDS011;5404;42.656;23.336;2023-04-16T10:27:41;8.63;;;2.80;;
10705;SDS011;5404;42.656;23.336;2023-04-16T10:30:07;9.10;;;2.50;;
10705;SDS011;5404;42.656;23.336;2023-04-16T10:32:35;8.13;;;2.40;;
10705;SDS011;5404;42.656;23.336;2023-04-16T10:35:02;11.32;;;3.28;;
10705;SDS011;5404;42.656;23.336;2023-04-16T10:37:28;7.47;;;2.60;;
10705;SDS011;5404;42.656;23.336;2023-04-16T10:39:55;11.05;;;2.72;;
10705;SDS011;5404;42.656;23.336;2023-04-16T10:42:22;13.15;;;3.17;;
10705;SDS011;5404;42.656;23.336;2023-04-16T10:44:47;6.60;;;2.80;;
10705;SDS011;5404;42.656;23.336;2023-04-16T10:47:12;8.77;;;2.90;;
10705;SDS011;5404;42.656;23.336;2023-04-16T10:49:38;8.25;;;3.08;;
10705;SDS011;5404;42.656;23.336;2023-04-16T10:52:14;7.03;;;2.90;;
10705;SDS011;5404;42.656;23.336;2023-04-16T10:54:43;11.02;;;2.92;;
10705;SDS011;5404;42.656;23.336;2023-04-16T10:57:09;8.93;;;3.13;;
10705;SDS011;5404;42.656;23.336;2023-04-16T10:59:41;5.60;;;2.70;;
10705;SDS011;5404;42.656;23.336;2023-04-16T11:02:11;5.32;;;2.45;;
10705;SDS011;5404;42.656;23.336;2023-04-16T11:04:39;10.18;;;2.60;;
10705;SDS011;5404;42.656;23.336;2023-04-16T11:09:41;7.03;;;2.38;;
10705;SDS011;5404;42.656;23.336;2023-04-16T11:12:33;4.60;;;2.67;;
10705;SDS011;5404;42.656;23.336;2023-04-16T11:15:02;6.28;;;2.72;;
10705;SDS011;5404;42.656;23.336;2023-04-16T11:17:31;8.93;;;2.75;;
10705;SDS011;5404;42.656;23.336;2023-04-16T11:20:00;9.02;;;3.15;;
10705;SDS011;5404;42.656;23.336;2023-04-16T11:22:26;7.20;;;2.22;;
10705;SDS011;5404;42.656;23.336;2023-04-16T11:24:55;7.22;;;2.45;;
10705;SDS011;5404;42.656;23.336;2023-04-16T11:29:55;6.22;;;2.83;;
10705;SDS011;5404;42.656;23.336;2023-04-16T11:32:41;7.80;;;2.50;;
10705;SDS011;5404;42.656;23.336;2023-04-16T11:35:12;5.90;;;2.63;;
10705;SDS011;5404;42.656;23.336;2023-04-16T11:37:40;7.80;;;2.55;;
10705;SDS011;5404;42.656;23.336;2023-04-16T11:40:06;5.18;;;2.45;;
10705;SDS011;5404;42.656;23.336;2023-04-16T11:42:35;4.50;;;2.40;;
10705;SDS011;5404;42.656;23.336;2023-04-16T11:45:02;6.57;;;2.20;;
10705;SDS011;5404;42.656;23.336;2023-04-16T11:47:28;11.32;;;2.45;;
10705;SDS011;5404;42.656;23.336;2023-04-16T11:49:54;5.05;;;2.47;;
10705;SDS011;5404;42.656;23.336;2023-04-16T11:52:27;9.02;;;3.28;;
10705;SDS011;5404;42.656;23.336;2023-04-16T11:54:54;6.55;;;2.55;;
10705;SDS011;5404;42.656;23.336;2023-04-16T11:59:54;8.13;;;2.63;;
10705;SDS011;5404;42.656;23.336;2023-04-16T12:02:33;6.13;;;2.60;;
10705;SDS011;5404;42.656;23.336;2023-04-16T12:05:02;8.20;;;2.40;;
10705;SDS011;5404;42.656;23.336;2023-04-16T12:07:28;6.35;;;2.55;;
10705;SDS011;5404;42.656;23.336;2023-04-16T12:10:03;6.32;;;2.28;;
10705;SDS011;5404;42.656;23.336;2023-04-16T12:12:31;5.80;;;2.80;;
10705;SDS011;5404;42.656;23.336;2023-04-16T12:14:57;6.55;;;2.50;;
10705;SDS011;5404;42.656;23.336;2023-04-16T12:17:24;7.00;;;3.47;;
10705;SDS011;5404;42.656;23.336;2023-04-16T12:19:50;8.38;;;2.97;;
10705;SDS011;5404;42.656;23.336;2023-04-16T12:22:29;5.03;;;2.67;;
10705;SDS011;5404;42.656;23.336;2023-04-16T12:25:02;4.57;;;2.78;;
10705;SDS011;5404;42.656;23.336;2023-04-16T12:27:49;13.48;;;3.20;;
10705;SDS011;5404;42.656;23.336;2023-04-16T12:30:22;8.55;;;2.60;;
10705;SDS011;5404;42.656;23.336;2023-04-16T12:32:52;5.55;;;2.67;;
10705;SDS011;5404;42.656;23.336;2023-04-16T12:35:37;10.48;;;2.90;;
10705;SDS011;5404;42.656;23.336;2023-04-16T12:38:03;8.63;;;2.95;;
10705;SDS011;5404;42.656;23.336;2023-04-16T12:40:29;7.70;;;3.08;;
10705;SDS011;5404;42.656;23.336;2023-04-16T12:42:55;7.93;;;2.55;;
10705;SDS011;5404;42.656;23.336;2023-04-16T12:45:20;5.90;;;2.40;;
10705;SDS011;5404;42.656;23.336;2023-04-16T12:47:46;4.68;;;2.28;;
10705;SDS011;5404;42.656;23.336;2023-04-16T12:50:11;8.88;;;2.70;;
10705;SDS011;5404;42.656;23.336;2023-04-16T12:52:37;8.50;;;3.05;;
10705;SDS011;5404;42.656;23.336;2023-04-16T12:55:03;5.55;;;2.40;;
10705;SDS011;5404;42.656;23.336;2023-04-16T12:57:29;12.43;;;2.75;;
10705;SDS011;5404;42.656;23.336;2023-04-16T12:59:55;5.93;;;2.33;;
10705;SDS011;5404;42.656;23.336;2023-04-16T13:02:21;4.43;;;2.03;;
10705;SDS011;5404;42.656;23.336;2023-04-16T13:04:47;4.20;;;2.20;;
10705;SDS011;5404;42.656;23.336;2023-04-16T13:07:13;7.05;;;2.72;;
10705;SDS011;5404;42.656;23.336;2023-04-16T13:09:39;9.45;;;3.13;;
10705;SDS011;5404;42.656;23.336;2023-04-16T13:12:05;12.23;;;3.00;;
10705;SDS011;5404;42.656;23.336;2023-04-16T13:14:31;8.05;;;2.75;;
10705;SDS011;5404;42.656;23.336;2023-04-16T13:16:56;8.68;;;2.40;;
10705;SDS011;5404;42.656;23.336;2023-04-16T13:19:22;6.28;;;2.72;;
10705;SDS011;5404;42.656;23.336;2023-04-16T13:21:47;10.93;;;5.28;;
10705;SDS011;5404;42.656;23.336;2023-04-16T13:24:12;6.28;;;2.47;;
10705;SDS011;5404;42.656;23.336;2023-04-16T13:26:39;9.88;;;2.83;;
10705;SDS011;5404;42.656;23.336;2023-04-16T13:29:06;10.00;;;3.08;;
10705;SDS011;5404;42.656;23.336;2023-04-16T13:31:31;4.97;;;2.45;;
10705;SDS011;5404;42.656;23.336;2023-04-16T13:33:57;3.17;;;2.30;;
10705;SDS011;5404;42.656;23.336;2023-04-16T13:36:23;14.27;;;2.72;;
10705;SDS011;5404;42.656;23.336;2023-04-16T13:38:48;9.05;;;2.97;;
10705;SDS011;5404;42.656;23.336;2023-04-16T13:41:13;5.00;;;2.22;;
10705;SDS011;5404;42.656;23.336;2023-04-16T13:43:39;3.78;;;2.03;;
10705;SDS011;5404;42.656;23.336;2023-04-16T13:46:04;5.55;;;2.45;;
10705;SDS011;5404;42.656;23.336;2023-04-16T13:48:30;4.65;;;2.00;;
10705;SDS011;5404;42.656;23.336;2023-04-16T13:50:56;7.32;;;2.08;;
10705;SDS011;5404;42.656;23.336;2023-04-16T13:53:22;6.10;;;1.92;;
10705;SDS011;5404;42.656;23.336;2023-04-16T13:55:48;6.38;;;2.50;;
10705;SDS011;5404;42.656;23.336;2023-04-16T13:58:16;4.43;;;1.92;;
10705;SDS011;5404;42.656;23.336;2023-04-16T14:00:42;12.65;;;6.43;;
10705;SDS011;5404;42.656;23.336;2023-04-16T14:03:07;6.60;;;2.75;;
10705;SDS011;5404;42.656;23.336;2023-04-16T14:05:33;7.78;;;2.42;;
10705;SDS011;5404;42.656;23.336;2023-04-16T14:07:58;4.88;;;2.28;;
10705;SDS011;5404;42.656;23.336;2023-04-16T14:10:24;8.25;;;3.28;;
10705;SDS011;5404;42.656;23.336;2023-04-16T14:12:50;4.53;;;2.38;;
10705;SDS011;5404;42.656;23.336;2023-04-16T14:15:16;5.60;;;2.50;;
10705;SDS011;5404;42.656;23.336;2023-04-16T14:17:42;9.07;;;3.00;;
10705;SDS011;5404;42.656;23.336;2023-04-16T14:20:09;3.83;;;2.35;;
10705;SDS011;5404;42.656;23.336;2023-04-16T14:22:37;9.18;;;3.38;;
10705;SDS011;5404;42.656;23.336;2023-04-16T14:25:04;4.13;;;1.75;;
10705;SDS011;5404;42.656;23.336;2023-04-16T14:27:30;4.30;;;1.85;;
10705;SDS011;5404;42.656;23.336;2023-04-16T14:29:56;4.88;;;2.00;;
10705;SDS011;5404;42.656;23.336;2023-04-16T14:32:22;6.72;;;2.00;;
10705;SDS011;5404;42.656;23.336;2023-04-16T14:34:47;5.80;;;2.28;;
10705;SDS011;5404;42.656;23.336;2023-04-16T14:37:14;4.35;;;2.08;;
10705;SDS011;5404;42.656;23.336;2023-04-16T14:39:40;4.45;;;2.03;;
10705;SDS011;5404;42.656;23.336;2023-04-16T14:42:06;3.95;;;1.98;;
10705;SDS011;5404;42.656;23.336;2023-04-16T14:44:33;3.08;;;2.17;;
10705;SDS011;5404;42.656;23.336;2023-04-16T14:46:58;4.55;;;2.30;;
10705;SDS011;5404;42.656;23.336;2023-04-16T14:49:24;5.38;;;2.40;;
10705;SDS011;5404;42.656;23.336;2023-04-16T14:51:50;6.38;;;2.58;;